Time;durP1;ratioP1;P1;durP2;ratioP2;P2;SDS_P1;SDS_P2;PMS_P1;PMS_P2;Temp;Humidity;BMP_temperature;BMP_pressure;BME280_temperature;BME280_humidity;BME280_pressure;Samples;Min_cycle;Max_cycle;Signal;HPM_P1;HPM_P2
2023/12/19 00:00:47;;;;;;;109.07;60.33;;;;;;;1.37;100.00;101736.78;1469360;88;22301;-78
2023/12/19 00:03:13;;;;;;;101.37;57.20;;;;;;;1.39;100.00;101741.49;1472693;88;22717;-78
2023/12/19 00:05:40;;;;;;;90.27;53.93;;;;;;;1.39;100.00;101740.19;1474320;88;22108;-78
2023/12/19 00:08:10;;;;;;;101.13;57.53;;;;;;;1.40;100.00;101729.68;1472520;88;22149;-77
2023/12/19 00:10:36;;;;;;;94.77;53.37;;;;;;;1.39;100.00;101727.14;1480118;88;22382;-78
2023/12/19 00:13:02;;;;;;;96.27;56.63;;;;;;;1.33;100.00;101716.02;1471596;88;23058;-78
2023/12/19 00:15:28;;;;;;;99.23;56.23;;;;;;;1.41;100.00;101717.48;1471092;88;22180;-78
2023/12/19 00:17:55;;;;;;;99.93;58.87;;;;;;;1.43;100.00;101723.04;1477250;88;22107;-78
2023/12/19 00:20:21;;;;;;;98.43;56.80;;;;;;;1.44;100.00;101706.92;1476376;88;22363;-78
2023/12/19 00:22:48;;;;;;;97.13;53.67;;;;;;;1.49;100.00;101721.50;1467919;88;22175;-78
2023/12/19 00:25:14;;;;;;;97.43;56.03;;;;;;;1.50;100.00;101718.05;1476945;88;23186;-78
2023/12/19 00:27:40;;;;;;;100.57;57.00;;;;;;;1.49;100.00;101718.05;1473765;88;22200;-78
2023/12/19 00:30:07;;;;;;;96.03;54.43;;;;;;;1.47;100.00;101731.63;1476441;88;21987;-78
2023/12/19 00:32:33;;;;;;;96.97;58.40;;;;;;;1.47;100.00;101731.63;1473642;88;22195;-78
2023/12/19 00:35:00;;;;;;;97.10;56.03;;;;;;;1.37;100.00;101711.53;1469057;88;22349;-78
2023/12/19 00:37:26;;;;;;;105.03;59.50;;;;;;;1.39;100.00;101724.08;1459861;88;21884;-78
2023/12/19 00:39:52;;;;;;;97.83;54.77;;;;;;;1.39;100.00;101724.08;1478656;88;22107;-78
2023/12/19 00:42:18;;;;;;;96.33;55.27;;;;;;;1.38;100.00;101714.98;1474889;88;22809;-78
2023/12/19 00:44:44;;;;;;;91.27;51.97;;;;;;;1.38;100.00;101714.98;1470162;88;22042;-77
2023/12/19 00:47:11;;;;;;;100.80;57.73;;;;;;;1.45;100.00;101716.48;1477088;88;22219;-79
2023/12/19 00:49:37;;;;;;;97.97;55.70;;;;;;;1.47;100.00;101718.58;1468792;88;22361;-78
2023/12/19 00:52:05;;;;;;;98.50;53.20;;;;;;;1.46;100.00;101709.03;1477992;88;22173;-78
2023/12/19 00:54:31;;;;;;;95.67;54.03;;;;;;;1.46;100.00;101709.03;1472839;88;22449;-78
2023/12/19 00:56:58;;;;;;;93.43;53.80;;;;;;;1.51;100.00;101716.24;1484575;88;22193;-78
2023/12/19 00:59:24;;;;;;;102.77;56.63;;;;;;;1.55;100.00;101717.81;1482026;88;22286;-77
2023/12/19 01:01:50;;;;;;;97.10;53.33;;;;;;;1.57;100.00;101719.92;1474931;88;22263;-78
2023/12/19 01:04:17;;;;;;;100.67;57.87;;;;;;;1.58;100.00;101712.47;1457686;88;23123;-78
2023/12/19 01:06:43;;;;;;;105.43;57.10;;;;;;;1.57;100.00;101717.31;1474659;88;22264;-79
2023/12/19 01:09:09;;;;;;;102.17;57.10;;;;;;;1.56;100.00;101718.23;1480459;88;22197;-79
2023/12/19 01:11:36;;;;;;;107.53;59.80;;;;;;;1.53;100.00;101715.28;1455338;88;22166;-79
2023/12/19 01:14:03;;;;;;;97.87;56.90;;;;;;;1.54;100.00;101717.43;1477099;88;22226;-78
2023/12/19 01:16:29;;;;;;;101.17;56.90;;;;;;;1.54;100.00;101717.43;1473845;88;22299;-78
2023/12/19 01:18:55;;;;;;;97.00;53.47;;;;;;;1.58;100.00;101721.61;1461610;88;22166;-78
2023/12/19 01:21:22;;;;;;;92.33;53.13;;;;;;;1.58;100.00;101717.70;1477878;88;22128;-78
2023/12/19 01:23:48;;;;;;;105.90;56.23;;;;;;;1.60;100.00;101711.97;1476136;88;22238;-78
2023/12/19 01:26:14;;;;;;;116.73;59.07;;;;;;;1.62;100.00;101710.16;1473582;88;22373;-77
2023/12/19 01:28:40;;;;;;;102.90;55.87;;;;;;;1.62;100.00;101714.08;1479123;88;22234;-78
2023/12/19 01:31:07;;;;;;;114.50;57.97;;;;;;;1.58;100.00;101708.13;1469604;88;22165;-78
2023/12/19 01:33:33;;;;;;;120.33;63.23;;;;;;;1.58;100.00;101706.83;1474360;88;22226;-78
2023/12/19 01:35:59;;;;;;;135.57;66.97;;;;;;;1.56;100.00;101696.05;1473132;88;22184;-78
2023/12/19 01:38:25;;;;;;;134.37;66.47;;;;;;;1.55;100.00;101700.85;1472698;88;22394;-78
2023/12/19 01:40:52;;;;;;;127.00;66.10;;;;;;;1.53;100.00;101697.47;1476062;88;22143;-78
2023/12/19 01:43:21;;;;;;;129.70;63.10;;;;;;;1.53;100.00;101697.47;1470142;88;22072;-79
2023/12/19 01:45:49;;;;;;;129.53;64.83;;;;;;;1.52;100.00;101686.63;1480134;88;22186;-79
2023/12/19 01:48:18;;;;;;;125.53;62.27;;;;;;;1.53;100.00;101688.34;1472264;88;22131;-79
2023/12/19 01:50:47;;;;;;;132.80;63.23;;;;;;;1.52;100.00;101677.37;1476336;88;22206;-77
2023/12/19 01:53:15;;;;;;;127.73;63.37;;;;;;;1.55;100.00;101677.37;1470529;88;23807;-77
2023/12/19 01:55:42;;;;;;;125.87;63.30;;;;;;;1.56;100.00;101669.95;1485758;88;22233;-78
2023/12/19 01:58:10;;;;;;;120.97;63.43;;;;;;;1.52;100.00;101661.38;1481462;88;22176;-77
2023/12/19 02:00:37;;;;;;;126.83;59.30;;;;;;;1.54;100.00;101654.80;1452356;88;23320;-77
2023/12/19 02:03:05;;;;;;;133.03;63.13;;;;;;;1.47;100.00;101645.53;1482190;88;22188;-78
2023/12/19 02:05:35;;;;;;;139.23;68.03;;;;;;;1.47;100.00;101645.53;1477849;88;23047;-77
2023/12/19 02:08:01;;;;;;;132.10;64.77;;;;;;;1.48;100.00;101651.13;1475356;88;22294;-77
2023/12/19 02:10:27;;;;;;;119.77;64.03;;;;;;;1.44;100.00;101647.16;1475449;88;22947;-78
2023/12/19 02:12:53;;;;;;;123.00;61.07;;;;;;;1.38;100.00;101647.16;1481249;88;22080;-76
2023/12/19 02:15:19;;;;;;;120.37;64.07;;;;;;;1.36;100.00;101660.28;1481239;88;22331;-76
2023/12/19 02:17:45;;;;;;;129.90;65.67;;;;;;;1.33;100.00;101660.40;1483000;88;22235;-77
2023/12/19 02:20:12;;;;;;;127.97;63.87;;;;;;;1.35;100.00;101651.61;1471940;88;22937;-78
2023/12/19 02:22:38;;;;;;;121.90;62.67;;;;;;;1.35;100.00;101651.61;1477867;88;23278;-79
2023/12/19 02:25:06;;;;;;;130.50;63.53;;;;;;;1.40;100.00;101645.36;1475472;88;22163;-79
2023/12/19 02:27:33;;;;;;;129.37;64.03;;;;;;;1.43;100.00;101649.15;1483152;88;22182;-78
2023/12/19 02:29:59;;;;;;;125.73;66.47;;;;;;;1.43;100.00;101648.30;1479746;88;22236;-78
2023/12/19 02:32:25;;;;;;;124.10;63.53;;;;;;;1.42;100.00;101648.30;1480293;88;22170;-77
2023/12/19 02:34:52;;;;;;;127.57;66.03;;;;;;;1.41;100.00;101647.05;1478906;88;21576;-78
2023/12/19 02:37:20;;;;;;;136.73;66.13;;;;;;;1.33;100.00;101635.16;1485414;88;22380;-79
2023/12/19 02:39:46;;;;;;;127.00;65.00;;;;;;;1.38;100.00;101636.73;1483364;88;22240;-77
2023/12/19 02:42:12;;;;;;;138.77;67.27;;;;;;;1.35;100.00;101633.35;1495070;88;23045;-76
2023/12/19 02:44:38;;;;;;;139.67;68.27;;;;;;;1.37;100.00;101648.08;1483569;88;21545;-77
2023/12/19 02:47:04;;;;;;;135.10;67.83;;;;;;;1.37;100.00;101642.87;1483266;88;22345;-77
2023/12/19 02:49:31;;;;;;;129.70;65.23;;;;;;;1.38;100.00;101634.97;1485720;88;21972;-77
2023/12/19 02:51:58;;;;;;;138.23;66.27;;;;;;;1.38;100.00;101634.97;1487670;88;21978;-77
2023/12/19 02:54:24;;;;;;;135.43;68.67;;;;;;;1.37;100.00;101615.48;1480965;88;22203;-77
2023/12/19 02:56:51;;;;;;;127.60;64.33;;;;;;;1.40;100.00;101606.22;1479302;88;21890;-77
2023/12/19 02:59:18;;;;;;;133.57;63.73;;;;;;;1.40;100.00;101601.01;1476873;88;23160;-77
2023/12/19 03:01:47;;;;;;;121.33;62.13;;;;;;;1.40;100.00;101601.01;1480191;88;21985;-77
2023/12/19 03:04:14;;;;;;;117.60;60.60;;;;;;;1.41;100.00;101597.48;1478379;88;22183;-78
2023/12/19 03:06:40;;;;;;;128.27;66.20;;;;;;;1.48;100.00;101611.53;1476548;88;22187;-78
2023/12/19 03:09:06;;;;;;;124.80;63.17;;;;;;;1.54;100.00;101609.14;1482943;88;22337;-79
2023/12/19 03:11:37;;;;;;;118.10;59.00;;;;;;;1.54;100.00;101609.14;1487919;88;22168;-78
2023/12/19 03:14:03;;;;;;;135.20;67.55;;;;;;;1.50;100.00;101623.23;1467710;88;22245;-79
2023/12/19 03:16:30;;;;;;;138.63;72.57;;;;;;;1.45;100.00;101621.25;1480462;88;21427;-79
2023/12/19 03:18:56;;;;;;;133.47;66.10;;;;;;;1.43;100.00;101637.41;1486670;88;23143;-79
2023/12/19 03:21:22;;;;;;;130.93;63.83;;;;;;;1.41;100.00;101644.44;1477883;88;23118;-79
2023/12/19 03:23:48;;;;;;;140.97;73.03;;;;;;;1.40;100.00;101640.14;1476296;88;22418;-79
2023/12/19 03:26:14;;;;;;;124.60;61.43;;;;;;;1.39;100.00;101635.84;1481786;88;22183;-79
2023/12/19 03:28:40;;;;;;;126.43;65.10;;;;;;;1.42;100.00;101623.98;1474193;88;22433;-79
2023/12/19 03:31:07;;;;;;;122.10;59.80;;;;;;;1.45;100.00;101582.12;1482127;88;22019;-78
2023/12/19 03:33:33;;;;;;;130.30;66.13;;;;;;;1.44;100.00;101592.14;1479947;88;22173;-78
2023/12/19 03:35:59;;;;;;;113.87;59.63;;;;;;;1.44;100.00;101592.14;1474232;88;22167;-79
2023/12/19 03:38:25;;;;;;;112.40;56.70;;;;;;;1.41;100.00;101596.17;1486279;88;22134;-79
2023/12/19 03:40:51;;;;;;;125.90;61.17;;;;;;;1.35;100.00;101602.05;1474527;88;22285;-79
2023/12/19 03:43:17;;;;;;;122.03;61.07;;;;;;;1.30;100.00;101617.02;1480539;88;22146;-79
2023/12/19 03:45:43;;;;;;;123.60;64.73;;;;;;;1.22;100.00;101634.72;1479174;88;21509;-78
2023/12/19 03:48:09;;;;;;;130.87;63.63;;;;;;;1.19;100.00;101627.02;1482811;88;21553;-79
2023/12/19 03:50:35;;;;;;;129.67;65.20;;;;;;;1.16;100.00;101618.47;1479798;88;22150;-80
2023/12/19 03:53:02;;;;;;;134.10;67.77;;;;;;;1.22;100.00;101620.84;1488775;88;23140;-79
2023/12/19 03:55:28;;;;;;;138.30;68.47;;;;;;;1.24;100.00;101608.59;1475304;88;22098;-80
2023/12/19 03:57:54;;;;;;;118.03;63.30;;;;;;;1.24;100.00;101608.59;1476802;88;23114;-78
2023/12/19 04:00:20;;;;;;;124.83;65.57;;;;;;;1.27;100.00;101613.69;1475973;88;21955;-79
2023/12/19 04:02:47;;;;;;;118.23;61.23;;;;;;;1.32;100.00;101607.39;1478071;88;22185;-78
2023/12/19 04:05:14;;;;;;;124.10;63.40;;;;;;;1.35;100.00;101583.79;1482755;88;22202;-79
2023/12/19 04:07:40;;;;;;;128.47;66.47;;;;;;;1.35;100.00;101583.55;1468743;88;22027;-79
2023/12/19 04:10:07;;;;;;;113.50;60.83;;;;;;;1.45;100.00;101583.42;1467630;88;22134;-77
2023/12/19 04:12:33;;;;;;;113.57;54.23;;;;;;;1.45;100.00;101583.42;1470529;88;21936;-78
2023/12/19 04:15:00;;;;;;;112.90;57.17;;;;;;;1.48;100.00;101576.77;1472635;88;22294;-78
2023/12/19 04:17:26;;;;;;;101.53;52.33;;;;;;;1.53;100.00;101574.84;1478051;88;22167;-79
2023/12/19 04:19:52;;;;;;;101.63;54.43;;;;;;;1.51;100.00;101579.00;1480416;88;22246;-78
2023/12/19 04:22:18;;;;;;;102.23;53.73;;;;;;;1.47;100.00;101579.00;1469404;88;22164;-78
2023/12/19 04:24:44;;;;;;;101.20;54.80;;;;;;;1.43;100.00;101586.53;1458641;88;23038;-78
2023/12/19 04:27:11;;;;;;;105.53;51.37;;;;;;;1.40;100.00;101593.19;1467577;88;21992;-78
2023/12/19 04:29:38;;;;;;;103.17;53.20;;;;;;;1.39;100.00;101607.14;1476898;88;22328;-78
2023/12/19 04:32:06;;;;;;;97.70;52.50;;;;;;;1.38;100.00;101602.36;1461680;88;22055;-79
2023/12/19 04:34:32;;;;;;;102.83;51.33;;;;;;;1.38;100.00;101602.36;1476319;88;21987;-78
2023/12/19 04:36:58;;;;;;;96.00;49.97;;;;;;;1.41;100.00;101600.09;1469717;88;22378;-78
2023/12/19 04:39:25;;;;;;;93.57;49.67;;;;;;;1.40;100.00;101608.83;1473902;88;22096;-77
2023/12/19 04:41:51;;;;;;;93.23;50.77;;;;;;;1.40;100.00;101616.66;1474032;88;22421;-76
2023/12/19 04:44:17;;;;;;;99.77;49.30;;;;;;;1.43;100.00;101615.23;1473472;88;23153;-77
2023/12/19 04:46:43;;;;;;;98.00;51.23;;;;;;;1.42;100.00;101593.98;1457626;88;22322;-77
2023/12/19 04:49:09;;;;;;;103.20;55.63;;;;;;;1.46;100.00;101606.83;1469931;88;21517;-77
2023/12/19 04:51:36;;;;;;;104.33;53.67;;;;;;;1.48;100.00;101608.08;1476759;88;22455;-77
2023/12/19 04:54:03;;;;;;;108.57;50.70;;;;;;;1.45;100.00;101583.42;1478160;88;23052;-77
2023/12/19 04:56:30;;;;;;;99.33;50.07;;;;;;;1.42;100.00;101590.06;1467724;88;22217;-77
2023/12/19 04:58:56;;;;;;;105.10;53.47;;;;;;;1.42;100.00;101590.06;1471392;88;22741;-77
2023/12/19 05:01:22;;;;;;;101.50;53.03;;;;;;;1.44;100.00;101596.05;1474366;88;22284;-77
2023/12/19 05:03:48;;;;;;;101.13;51.47;;;;;;;1.38;100.00;101584.09;1472785;88;23031;-76
2023/12/19 05:06:17;;;;;;;105.00;52.63;;;;;;;1.38;100.00;101584.09;1477312;88;22290;-76
2023/12/19 05:08:47;;;;;;;102.47;50.13;;;;;;;1.42;100.00;101593.42;1472256;88;22364;-76
2023/12/19 05:11:14;;;;;;;98.50;45.30;;;;;;;1.33;100.00;101593.42;1470210;88;22421;-76
2023/12/19 05:13:40;;;;;;;123.57;59.83;;;;;;;1.35;100.00;101602.05;1469216;88;21509;-76
2023/12/19 05:16:17;;;;;;;114.27;57.10;;;;;;;1.32;100.00;101617.83;1478557;88;22404;-76
2023/12/19 05:18:46;;;;;;;115.10;56.70;;;;;;;1.33;100.00;101622.12;1469791;88;22124;-76
2023/12/19 05:21:13;;;;;;;131.63;68.47;;;;;;;1.32;100.00;101633.47;1469740;88;22319;-76
2023/12/19 05:23:40;;;;;;;126.67;67.77;;;;;;;1.32;100.00;101633.47;1474483;88;21912;-75
2023/12/19 05:26:08;;;;;;;116.37;55.93;;;;;;;1.33;100.00;101625.19;1467326;88;23219;-78
2023/12/19 05:28:36;;;;;;;112.77;57.07;;;;;;;1.37;100.00;101635.05;1472945;88;22234;-77
2023/12/19 05:31:02;;;;;;;100.47;51.53;;;;;;;1.37;100.00;101630.67;1476783;88;23217;-76
2023/12/19 05:33:30;;;;;;;98.33;51.00;;;;;;;1.42;100.00;101637.87;1471656;88;22113;-77
2023/12/19 05:35:56;;;;;;;99.70;49.67;;;;;;;1.46;100.00;101637.28;1465780;88;22062;-76
2023/12/19 05:38:22;;;;;;;97.80;46.60;;;;;;;1.45;100.00;101640.82;1461531;88;22122;-77
2023/12/19 05:40:51;;;;;;;98.80;51.63;;;;;;;1.40;100.00;101637.07;1473535;88;22155;-77
2023/12/19 05:43:16;;;;;;;100.13;49.17;;;;;;;1.40;100.00;101637.07;1471053;88;22371;-77
2023/12/19 05:45:43;;;;;;;99.17;48.87;;;;;;;1.35;100.00;101631.17;1472188;88;22173;-77
2023/12/19 05:48:09;;;;;;;107.77;52.97;;;;;;;1.39;100.00;101655.41;1469843;88;22435;-77
2023/12/19 05:50:35;;;;;;;106.57;49.00;;;;;;;1.34;100.00;101665.55;1476422;88;22239;-77
2023/12/19 05:53:01;;;;;;;108.07;51.07;;;;;;;1.33;100.00;101631.25;1468240;88;21510;-77
2023/12/19 05:55:28;;;;;;;106.93;49.87;;;;;;;1.33;100.00;101631.25;1474883;88;22180;-77
2023/12/19 05:57:54;;;;;;;98.43;45.10;;;;;;;1.41;100.00;101618.34;1467188;88;22284;-77
2023/12/19 06:00:21;;;;;;;94.97;48.03;;;;;;;1.41;100.00;101606.18;1477807;88;21916;-77
2023/12/19 06:02:50;;;;;;;97.30;46.00;;;;;;;1.41;100.00;101606.18;1482791;88;22141;-76
2023/12/19 06:05:18;;;;;;;100.10;45.03;;;;;;;1.45;100.00;101588.64;1472427;88;22141;-77
2023/12/19 06:07:44;;;;;;;102.13;46.63;;;;;;;1.38;100.00;101576.73;1481285;88;22258;-79
2023/12/19 06:10:12;;;;;;;81.57;40.10;;;;;;;1.30;100.00;101554.42;1475196;88;22815;-78
2023/12/19 06:12:38;;;;;;;93.50;46.97;;;;;;;1.19;100.00;101542.26;1475731;88;22261;-77
2023/12/19 06:15:11;;;;;;;90.60;41.17;;;;;;;1.17;100.00;101547.98;1470923;88;22011;-77
2023/12/19 06:17:45;;;;;;;104.20;49.57;;;;;;;1.17;100.00;101547.98;1483244;88;22481;-77
2023/12/19 06:20:12;;;;;;;96.37;42.40;;;;;;;1.12;100.00;101573.38;1472405;88;22077;-77
2023/12/19 06:22:39;;;;;;;104.27;45.67;;;;;;;1.08;100.00;101577.87;1476267;88;21953;-76
2023/12/19 06:25:06;;;;;;;107.33;44.97;;;;;;;1.08;100.00;101577.87;1459369;88;22506;-78
2023/12/19 06:27:34;;;;;;;98.63;41.40;;;;;;;1.11;100.00;101576.91;1467726;88;21911;-80
2023/12/19 06:30:05;;;;;;;102.63;45.53;;;;;;;1.11;100.00;101582.12;1474363;88;22114;-77
2023/12/19 06:32:32;;;;;;;107.12;49.18;;;;;;;1.09;100.00;101582.63;1478395;88;21852;-77
2023/12/19 06:34:58;;;;;;;104.17;45.60;;;;;;;1.12;100.00;101589.02;1469733;88;21457;-78
2023/12/19 06:37:25;;;;;;;104.07;47.13;;;;;;;1.16;100.00;101594.53;1479006;88;22018;-78
2023/12/19 06:39:51;;;;;;;107.60;49.07;;;;;;;1.16;100.00;101594.53;1473601;88;22142;-78
2023/12/19 06:42:17;;;;;;;109.43;48.83;;;;;;;1.22;100.00;101596.90;1472804;88;22862;-78
2023/12/19 06:44:43;;;;;;;110.50;50.10;;;;;;;1.26;100.00;101594.56;1480425;88;22077;-77
2023/12/19 06:47:09;;;;;;;112.67;50.07;;;;;;;1.26;100.00;101594.56;1478435;88;21940;-78
2023/12/19 06:49:35;;;;;;;111.90;47.27;;;;;;;1.32;100.00;101599.56;1474435;88;22199;-78
2023/12/19 06:52:02;;;;;;;118.80;50.77;;;;;;;1.27;100.00;101617.14;1464836;88;22111;-79
2023/12/19 06:54:28;;;;;;;116.43;54.33;;;;;;;1.19;100.00;101612.67;1482879;88;22147;-77
2023/12/19 06:56:54;;;;;;;119.23;51.90;;;;;;;1.19;100.00;101612.67;1469781;88;22202;-78
2023/12/19 06:59:24;;;;;;;118.37;49.77;;;;;;;1.15;100.00;101597.19;1475563;88;22198;-78
2023/12/19 07:01:50;;;;;;;121.90;54.93;;;;;;;1.23;100.00;101599.05;1477195;88;21990;-78
2023/12/19 07:04:16;;;;;;;117.07;50.17;;;;;;;1.23;100.00;101598.59;1460608;88;22069;-78
2023/12/19 07:06:42;;;;;;;127.93;51.13;;;;;;;1.25;100.00;101592.02;1474364;88;23121;-78
2023/12/19 07:09:08;;;;;;;111.00;46.53;;;;;;;1.28;100.00;101611.00;1470518;88;22924;-77
2023/12/19 07:11:36;;;;;;;113.93;48.17;;;;;;;1.24;100.00;101612.05;1470709;88;22073;-77
2023/12/19 07:14:03;;;;;;;115.33;47.43;;;;;;;1.22;100.00;101613.85;1459665;88;22294;-78
2023/12/19 07:16:29;;;;;;;118.13;49.67;;;;;;;1.22;100.00;101613.85;1474143;88;22263;-77
2023/12/19 07:18:55;;;;;;;127.70;51.97;;;;;;;1.18;100.00;101627.93;1469234;88;22036;-78
2023/12/19 07:21:25;;;;;;;129.83;50.53;;;;;;;1.18;100.00;101627.93;1475881;88;21949;-78
2023/12/19 07:23:53;;;;;;;132.17;54.87;;;;;;;1.24;100.00;101642.04;1461271;88;22447;-78
2023/12/19 07:26:23;;;;;;;119.03;50.30;;;;;;;1.28;100.00;101631.88;1477225;88;21960;-78
2023/12/19 07:28:51;;;;;;;120.47;50.77;;;;;;;1.40;100.00;101617.50;1475450;88;22461;-78
2023/12/19 07:31:31;;;;;;;122.30;51.20;;;;;;;1.45;100.00;101614.27;1474798;88;22200;-78
2023/12/19 07:34:04;;;;;;;124.17;52.13;;;;;;;1.45;100.00;101614.27;1474922;88;22374;-78
2023/12/19 07:36:32;;;;;;;124.97;55.40;;;;;;;1.52;100.00;101590.62;1461673;88;22047;-77
2023/12/19 07:38:59;;;;;;;147.57;60.63;;;;;;;1.50;100.00;101590.62;1483600;88;23188;-77
2023/12/19 07:41:31;;;;;;;131.27;53.80;;;;;;;1.53;100.00;101580.05;1473893;88;22284;-78
2023/12/19 07:43:55;;;;;;;125.90;59.80;;;;;;;1.53;100.00;101580.05;1476019;88;23327;-77
2023/12/19 07:46:21;;;;;;;138.47;56.57;;;;;;;1.52;100.00;101592.69;1477376;88;21834;-77
2023/12/19 07:48:48;;;;;;;133.37;56.63;;;;;;;1.52;100.00;101592.69;1460002;88;22158;-78
2023/12/19 07:51:23;;;;;;;129.53;51.60;;;;;;;1.55;100.00;101577.78;1458895;88;22277;-78
2023/12/19 07:53:51;;;;;;;109.93;44.07;;;;;;;1.61;100.00;101586.25;1478712;88;22299;-78
2023/12/19 07:56:18;;;;;;;107.67;46.97;;;;;;;1.61;100.00;101586.25;1467607;88;22032;-78
2023/12/19 07:58:44;;;;;;;96.93;43.37;;;;;;;1.62;100.00;101591.42;1478018;88;22143;-78
2023/12/19 08:01:14;;;;;;;115.03;44.50;;;;;;;1.55;100.00;101593.44;1483658;88;22284;-78
2023/12/19 08:03:43;;;;;;;108.78;49.55;;;;;;;1.55;100.00;101593.44;1472310;88;22235;-78
2023/12/19 08:06:10;;;;;;;108.67;47.83;;;;;;;1.54;100.00;101589.11;1472975;88;21494;-77
2023/12/19 08:08:37;;;;;;;109.40;46.50;;;;;;;1.53;100.00;101608.76;1481690;88;22424;-77
2023/12/19 08:11:04;;;;;;;86.77;38.33;;;;;;;1.53;100.00;101608.76;1451816;88;22397;-78
2023/12/19 08:13:30;;;;;;;80.07;38.43;;;;;;;1.53;100.00;101603.08;1477683;88;22150;-78
2023/12/19 08:15:56;;;;;;;88.47;41.23;;;;;;;1.51;100.00;101591.84;1480957;88;22227;-77
2023/12/19 08:18:22;;;;;;;89.43;39.17;;;;;;;1.50;100.00;101604.97;1471499;88;22313;-78
2023/12/19 08:20:48;;;;;;;91.27;39.93;;;;;;;1.51;100.00;101620.55;1472635;88;23120;-78
2023/12/19 08:23:15;;;;;;;75.87;38.97;;;;;;;1.51;100.00;101620.55;1470984;88;22195;-77
2023/12/19 08:25:41;;;;;;;78.37;36.30;;;;;;;1.49;100.00;101625.42;1460260;88;21983;-78
2023/12/19 08:28:09;;;;;;;73.03;34.60;;;;;;;1.43;100.00;101621.75;1479827;88;22176;-78
2023/12/19 08:30:36;;;;;;;78.30;34.63;;;;;;;1.44;100.00;101611.70;1485654;88;22310;-78
2023/12/19 08:33:02;;;;;;;79.50;37.90;;;;;;;1.45;100.00;101613.42;1473048;88;22270;-78
2023/12/19 08:35:29;;;;;;;96.83;42.13;;;;;;;1.43;100.00;101617.84;1468213;88;22196;-78
2023/12/19 08:37:55;;;;;;;107.97;47.27;;;;;;;1.46;100.00;101620.33;1476593;88;22317;-78
2023/12/19 08:40:22;;;;;;;103.30;45.70;;;;;;;1.52;100.00;101625.30;1454735;88;22187;-78
2023/12/19 08:42:48;;;;;;;99.70;44.97;;;;;;;1.51;100.00;101623.62;1473286;88;23350;-78
2023/12/19 08:45:22;;;;;;;123.13;51.77;;;;;;;1.60;100.00;101629.77;1482280;88;22685;-78
2023/12/19 08:47:48;;;;;;;117.33;51.47;;;;;;;1.63;100.00;101627.50;1469401;88;22536;-78
2023/12/19 08:50:15;;;;;;;105.57;45.37;;;;;;;1.63;100.00;101627.50;1477674;88;22192;-78
2023/12/19 08:52:42;;;;;;;112.50;48.00;;;;;;;1.65;100.00;101630.45;1473056;88;23066;-78
2023/12/19 08:55:10;;;;;;;102.83;45.17;;;;;;;1.64;100.00;101626.15;1475669;88;22087;-78
2023/12/19 08:57:42;;;;;;;99.30;43.57;;;;;;;1.67;100.00;101629.94;1476536;88;22001;-78
2023/12/19 09:00:18;;;;;;;104.53;41.87;;;;;;;1.58;100.00;101623.32;1473270;88;22002;-77
2023/12/19 09:02:46;;;;;;;105.67;43.87;;;;;;;1.63;100.00;101616.59;1473555;88;22077;-78
2023/12/19 09:05:15;;;;;;;101.80;43.03;;;;;;;1.63;100.00;101616.59;1475368;88;22106;-78
2023/12/19 09:07:42;;;;;;;103.17;44.07;;;;;;;1.70;100.00;101625.90;1472208;88;22112;-78
2023/12/19 09:10:11;;;;;;;99.97;42.33;;;;;;;1.73;100.00;101602.28;1397418;88;22017;-77
2023/12/19 09:12:38;;;;;;;105.53;45.30;;;;;;;1.79;100.00;101587.67;1451827;88;22074;-78
2023/12/19 09:15:06;;;;;;;101.03;44.83;;;;;;;1.79;100.00;101579.84;1471796;88;22212;-78
2023/12/19 09:17:33;;;;;;;108.30;44.67;;;;;;;1.83;100.00;101585.78;1396647;88;21937;-77
2023/12/19 09:19:59;;;;;;;100.80;46.53;;;;;;;1.87;100.00;101579.53;1403995;88;21956;-78
2023/12/19 09:22:26;;;;;;;105.37;43.83;;;;;;;1.88;100.00;101567.33;1384928;89;22866;-77
2023/12/19 09:24:52;;;;;;;100.50;45.83;;;;;;;1.89;100.00;101563.33;1401152;88;21959;-78
2023/12/19 09:27:18;;;;;;;109.87;46.63;;;;;;;1.91;100.00;101559.36;1395318;88;21936;-77
2023/12/19 09:29:44;;;;;;;100.60;46.00;;;;;;;1.94;100.00;101543.56;1398532;88;22175;-78
2023/12/19 09:32:12;;;;;;;109.17;47.47;;;;;;;1.97;100.00;101534.30;1385371;89;22854;-77
2023/12/19 09:34:40;;;;;;;118.70;50.47;;;;;;;1.97;100.00;101523.84;1397721;88;21978;-78
2023/12/19 09:37:06;;;;;;;109.83;46.83;;;;;;;1.99;100.00;101504.59;1396321;88;22151;-78
2023/12/19 09:39:33;;;;;;;103.57;43.17;;;;;;;2.02;100.00;101501.01;1397651;88;21955;-79
2023/12/19 09:42:00;;;;;;;88.70;41.83;;;;;;;2.04;100.00;101487.41;1404511;88;21979;-77
2023/12/19 09:44:27;;;;;;;81.60;36.50;;;;;;;2.01;100.00;101475.79;1397739;88;22152;-77
2023/12/19 09:51:33;;;;;;;82.03;37.17;;;;;;;1.95;100.00;101473.45;1424966;91;21906;-77
2023/12/19 09:54:01;;;;;;;79.97;35.03;;;;;;;1.76;100.00;101459.90;1474409;91;22098;-78
2023/12/19 09:56:28;;;;;;;86.67;36.90;;;;;;;1.72;100.00;101453.09;1344430;93;22007;-78
2023/12/19 09:59:02;;;;;;;81.90;36.87;;;;;;;1.66;100.00;101445.53;1441680;91;22161;-78
2023/12/19 10:01:28;;;;;;;79.00;38.80;;;;;;;1.63;100.00;101441.75;1511937;91;21824;-78
2023/12/19 10:03:55;;;;;;;72.37;36.23;;;;;;;1.62;100.00;101431.39;1418779;91;21949;-78
2023/12/19 10:06:26;;;;;;;71.77;35.97;;;;;;;1.61;100.00;101428.38;1364683;91;22920;-78
2023/12/19 10:08:53;;;;;;;72.75;36.48;;;;;;;1.58;100.00;101425.44;1424743;91;22099;-78
2023/12/19 10:11:24;;;;;;;82.83;39.20;;;;;;;1.59;100.00;101431.06;1360346;91;22125;-78
2023/12/19 10:13:50;;;;;;;;;;;;;;;1.60;100.00;101433.21;1508687;91;22040;-77
2023/12/19 10:16:20;;;;;;;85.93;39.43;;;;;;;1.56;100.00;101435.95;1329935;94;20278;-78
2023/12/19 10:18:56;;;;;;;87.37;44.43;;;;;;;1.55;100.00;101434.70;1356822;91;21244;-78
2023/12/19 10:21:24;;;;;;;98.87;47.67;;;;;;;1.47;100.00;101431.13;1404982;91;22229;-77
2023/12/19 10:23:50;;;;;;;100.20;47.03;;;;;;;1.43;100.00;101436.07;1396042;88;22924;-78
2023/12/19 10:26:19;;;;;;;91.70;48.03;;;;;;;1.43;100.00;101453.48;1398660;88;22104;-78
2023/12/19 10:28:52;;;;;;;101.37;50.20;;;;;;;1.43;100.00;101453.48;1386295;89;21910;-77
2023/12/19 10:31:18;;;;;;;93.87;47.57;;;;;;;1.41;100.00;101450.96;1537946;88;22003;-78
2023/12/19 10:33:56;;;;;;;94.83;47.33;;;;;;;1.46;100.00;101457.27;1399047;88;22951;-77
2023/12/19 10:36:32;;;;;;;105.43;54.60;;;;;;;1.46;100.00;101444.31;1552982;88;22881;-78
2023/12/19 10:39:02;;;;;;;104.63;51.33;;;;;;;1.44;100.00;101444.31;1397457;88;22183;-78
2023/12/19 10:41:33;;;;;;;106.13;52.13;;;;;;;1.46;100.00;101448.14;1556650;88;21937;-78
2023/12/19 10:44:01;;;;;;;95.80;50.00;;;;;;;1.52;100.00;101443.97;1401376;88;22011;-78
2023/12/19 10:46:31;;;;;;;96.20;48.57;;;;;;;1.54;100.00;101439.54;1397059;88;21942;-79
2023/12/19 10:49:01;;;;;;;105.17;53.63;;;;;;;1.54;100.00;101439.54;1394293;88;22170;-77
2023/12/19 10:51:42;;;;;;;111.60;56.67;;;;;;;1.57;100.00;101450.69;1394362;88;21959;-78
2023/12/19 10:54:14;;;;;;;103.00;51.18;;;;;;;1.62;100.00;101456.19;1553283;88;23012;-78
2023/12/19 10:57:18;;;;;;;92.07;47.40;;;;;;;1.69;100.00;101453.69;1448891;89;21618;-78
2023/12/19 11:00:10;;;;;;;102.80;52.67;;;;;;;1.75;100.00;101452.96;1443103;88;22156;-78
2023/12/19 11:02:48;;;;;;;101.27;49.83;;;;;;;1.82;100.00;101443.13;1471439;88;22104;-78
2023/12/19 11:05:47;;;;;;;96.83;47.33;;;;;;;1.88;100.00;101442.86;1474586;88;23025;-78
2023/12/19 11:08:22;;;;;;;101.17;48.63;;;;;;;1.93;100.00;101432.22;1471811;88;22624;-78
2023/12/19 11:11:05;;;;;;;110.77;52.80;;;;;;;1.96;100.00;101421.64;1466736;88;22004;-78